createdAt,value
2023-08-24T00:04:58.153Z,7.60
2023-08-24T00:08:00.860Z,5.30
2023-08-24T00:11:03.726Z,6.20
2023-08-24T00:14:06.417Z,5.90
2023-08-24T00:17:09.090Z,6.40
2023-08-24T00:34:12.714Z,4.70
2023-08-24T00:37:16.200Z,5.90
2023-08-24T00:40:19.812Z,7.10
2023-08-24T00:43:25.520Z,6.10
2023-08-24T00:46:29.298Z,7.40
2023-08-24T00:49:32.234Z,30.40
2023-08-24T00:52:38.219Z,23.10
2023-08-24T00:55:41.080Z,16.20
2023-08-24T00:58:45.837Z,18.70
2023-08-24T01:01:48.705Z,18.00
2023-08-24T01:04:51.393Z,15.10
2023-08-24T01:07:55.182Z,11.60
2023-08-24T01:10:57.717Z,8.00
2023-08-24T01:14:33.790Z,12.60
2023-08-24T01:17:37.386Z,9.20
2023-08-24T01:20:41.862Z,8.20
2023-08-24T01:23:56.233Z,8.70
2023-08-24T01:27:00.427Z,6.90
2023-08-24T01:30:07.371Z,7.40
2023-08-24T01:33:13.432Z,6.00
2023-08-24T01:36:21.043Z,7.90
2023-08-24T01:43:05.411Z,6.40
2023-08-24T01:46:09.478Z,5.30
2023-08-24T01:49:14.953Z,5.20
2023-08-24T01:52:18.841Z,7.40
2023-08-24T01:55:22.138Z,5.70
2023-08-24T01:58:25.328Z,5.90
2023-08-24T02:05:14.116Z,7.90
2023-08-24T02:08:16.134Z,8.10
2023-08-24T02:11:18.591Z,10.50
2023-08-24T02:14:20.955Z,7.00
2023-08-24T02:17:22.947Z,7.40
2023-08-24T02:20:24.883Z,5.10
2023-08-24T02:23:27.860Z,4.30
2023-08-24T02:26:29.926Z,7.10
2023-08-24T02:29:31.792Z,8.20
2023-08-24T02:32:33.785Z,7.80
2023-08-24T02:35:35.831Z,8.40
2023-08-24T02:38:37.688Z,7.50
2023-08-24T02:41:40.501Z,8.20
2023-08-24T02:44:42.169Z,5.00
2023-08-24T02:47:44.012Z,8.10
2023-08-24T02:50:48.984Z,8.30
2023-08-24T02:53:51.301Z,9.00
2023-08-24T02:56:56.145Z,10.30
2023-08-24T02:59:58.091Z,12.10
2023-08-24T03:03:00.040Z,10.90
2023-08-24T03:06:07.141Z,13.30
2023-08-24T03:09:09.510Z,10.00
2023-08-24T03:12:12.308Z,8.20
2023-08-24T03:15:14.467Z,9.80
2023-08-24T03:18:17.469Z,8.10
2023-08-24T03:21:19.633Z,7.30
2023-08-24T03:24:21.706Z,10.80
2023-08-24T03:27:24.111Z,8.80
2023-08-24T03:30:26.048Z,6.90
2023-08-24T03:33:28.839Z,6.50
2023-08-24T03:36:30.700Z,7.70
2023-08-24T03:39:34.301Z,9.00
2023-08-24T03:42:36.461Z,6.10
2023-08-24T03:45:38.872Z,6.00
2023-08-24T03:48:41.115Z,6.80
2023-08-24T03:51:42.975Z,7.10
2023-08-24T03:54:44.901Z,4.50
2023-08-24T03:57:46.838Z,4.30
2023-08-24T04:04:56.706Z,5.10
2023-08-24T04:08:00.183Z,6.00
2023-08-24T04:11:02.885Z,5.00
2023-08-24T04:14:05.782Z,6.70
2023-08-24T04:17:08.441Z,9.20
2023-08-24T04:20:12.589Z,5.30
2023-08-24T04:23:15.442Z,7.20
2023-08-24T04:26:18.520Z,5.40
2023-08-24T04:29:21.162Z,5.30
2023-08-24T04:32:24.338Z,6.70
2023-08-24T04:35:27.954Z,6.50
2023-08-24T04:38:30.542Z,7.30
2023-08-24T04:41:33.100Z,6.50
2023-08-24T04:44:35.737Z,14.70
2023-08-24T04:47:38.289Z,9.80
2023-08-24T04:50:40.991Z,7.10
2023-08-24T04:53:43.644Z,5.50
2023-08-24T04:56:46.147Z,10.60
2023-08-24T05:03:46.611Z,4.80
2023-08-24T05:06:49.241Z,9.20
2023-08-24T05:09:51.919Z,3.80
2023-08-24T05:12:54.484Z,5.20
2023-08-24T05:15:57.091Z,7.40
2023-08-24T05:18:59.610Z,5.10
2023-08-24T05:22:02.115Z,5.30
2023-08-24T05:25:05.925Z,4.00
2023-08-24T05:28:08.465Z,5.00
2023-08-24T05:31:11.023Z,3.90
2023-08-24T05:34:13.843Z,4.30
2023-08-24T05:37:16.491Z,4.80
2023-08-24T05:40:19.084Z,6.80
2023-08-24T05:43:21.704Z,6.60
2023-08-24T05:46:24.390Z,4.40
2023-08-24T05:49:26.988Z,5.00
2023-08-24T05:52:29.507Z,3.70
2023-08-24T05:55:31.995Z,9.50
2023-08-24T05:58:34.517Z,5.30
2023-08-24T06:04:56.993Z,4.90
2023-08-24T06:08:00.229Z,4.20
2023-08-24T06:11:03.275Z,5.10
2023-08-24T06:14:06.003Z,5.20
2023-08-24T06:17:09.103Z,4.70
2023-08-24T06:20:12.908Z,5.10
2023-08-24T06:23:15.688Z,5.00
2023-08-24T06:26:19.445Z,3.80
2023-08-24T06:29:22.151Z,2.80
2023-08-24T06:32:24.993Z,2.90
2023-08-24T06:35:28.138Z,7.30
2023-08-24T06:38:30.897Z,6.50
2023-08-24T06:41:37.491Z,5.10
2023-08-24T06:44:43.745Z,5.90
2023-08-24T06:47:46.711Z,5.10
2023-08-24T06:50:50.894Z,4.60
2023-08-24T06:53:53.842Z,3.20
2023-08-24T06:56:56.617Z,4.20
2023-08-24T06:59:59.650Z,5.00
2023-08-24T07:03:02.798Z,4.00
2023-08-24T07:06:09.396Z,2.30
2023-08-24T07:09:12.224Z,2.40
2023-08-24T07:12:15.297Z,13.70
2023-08-24T07:15:18.095Z,5.70
2023-08-24T07:18:21.084Z,4.30
2023-08-24T07:21:24.067Z,2.50
2023-08-24T07:24:38.832Z,4.40
2023-08-24T07:27:48.054Z,5.90
2023-08-24T07:30:51.316Z,3.00
2023-08-24T07:33:55.589Z,3.90
2023-08-24T07:36:58.449Z,2.00
2023-08-24T07:40:01.330Z,2.60
2023-08-24T07:43:05.431Z,4.90
2023-08-24T07:46:09.214Z,2.90
2023-08-24T07:49:12.451Z,3.30
2023-08-24T07:52:15.346Z,4.00
2023-08-24T07:55:18.417Z,2.80
2023-08-24T07:58:21.623Z,2.50
2023-08-24T08:01:24.632Z,4.30
2023-08-24T08:04:27.914Z,1.50
2023-08-24T08:07:30.994Z,1.70
2023-08-24T08:10:33.795Z,1.50
2023-08-24T08:13:36.618Z,2.70
2023-08-24T08:16:39.628Z,2.30
2023-08-24T08:19:43.170Z,3.90
2023-08-24T08:22:46.232Z,3.00
2023-08-24T08:25:49.591Z,2.20
2023-08-24T08:28:52.768Z,1.90
2023-08-24T08:31:55.700Z,2.40
2023-08-24T08:34:59.974Z,5.30
2023-08-24T08:38:02.877Z,1.90
2023-08-24T08:41:06.106Z,3.80
2023-08-24T08:44:13.166Z,2.50
2023-08-24T08:47:16.648Z,3.20
2023-08-24T08:50:21.465Z,3.40
2023-08-24T08:53:25.160Z,2.20
2023-08-24T08:56:28.361Z,1.60
2023-08-24T08:59:31.899Z,2.30
2023-08-24T09:02:36.236Z,1.90
2023-08-24T09:05:39.833Z,4.90
2023-08-24T09:08:43.552Z,1.90
2023-08-24T09:11:48.848Z,2.00
2023-08-24T09:14:51.688Z,2.00
2023-08-24T09:17:57.632Z,2.30
2023-08-24T09:21:00.528Z,2.30
2023-08-24T09:24:03.013Z,3.30
2023-08-24T09:27:25.900Z,2.50
2023-08-24T09:30:34.173Z,2.80
2023-08-24T09:33:37.641Z,2.90
2023-08-24T09:36:41.037Z,1.60
2023-08-24T09:53:22.155Z,2.40
2023-08-24T09:56:27.455Z,2.90
2023-08-24T09:59:32.766Z,1.50
2023-08-24T10:05:36.332Z,4.30
2023-08-24T10:08:51.092Z,4.30
2023-08-24T10:11:59.558Z,3.10
2023-08-24T10:15:04.200Z,1.70
2023-08-24T10:18:07.436Z,3.80
2023-08-24T10:21:09.817Z,2.20
2023-08-24T10:24:13.788Z,2.10
2023-08-24T10:27:17.725Z,1.60
2023-08-24T10:30:21.006Z,1.80
2023-08-24T10:33:23.929Z,2.50
2023-08-24T10:36:27.603Z,1.90
2023-08-24T10:39:30.144Z,2.40
2023-08-24T10:42:50.547Z,2.50
2023-08-24T10:45:58.203Z,1.40
2023-08-24T10:52:39.976Z,3.20
2023-08-24T10:55:41.847Z,4.10
2023-08-24T10:58:46.288Z,2.90
2023-08-24T11:01:54.930Z,1.70
2023-08-24T11:05:31.212Z,2.10
2023-08-24T11:08:46.899Z,2.20
2023-08-24T11:12:00.107Z,1.40
2023-08-24T11:15:02.374Z,2.50
2023-08-24T11:18:19.915Z,2.90
2023-08-24T11:21:23.400Z,1.70
2023-08-24T11:24:26.268Z,1.50
2023-08-24T11:27:30.037Z,2.30
2023-08-24T11:30:33.975Z,3.20
2023-08-24T11:33:36.473Z,2.80
2023-08-24T11:36:48.913Z,2.50
2023-08-24T11:39:51.265Z,2.50
2023-08-24T11:56:30.039Z,2.50
2023-08-24T11:59:32.923Z,2.20
2023-08-24T12:02:36.689Z,1.80
2023-08-24T12:05:40.133Z,1.50
2023-08-24T12:08:44.765Z,2.10
2023-08-24T12:11:47.636Z,2.70
2023-08-24T12:28:25.102Z,1.30
2023-08-24T12:31:31.850Z,1.70
2023-08-24T12:37:38.442Z,1.70
2023-08-24T12:40:41.538Z,3.30
2023-08-24T12:43:46.368Z,2.80
2023-08-24T12:46:50.563Z,2.90
2023-08-24T12:49:55.928Z,2.30
2023-08-24T12:53:01.791Z,1.50
2023-08-24T12:56:04.673Z,1.70
2023-08-24T12:59:07.359Z,2.20
2023-08-24T13:02:10.648Z,1.90
2023-08-24T13:05:14.790Z,1.50
2023-08-24T13:08:17.682Z,1.60
2023-08-24T13:11:20.770Z,2.10
2023-08-24T13:14:23.608Z,1.40
2023-08-24T13:17:26.538Z,2.70
2023-08-24T13:20:29.314Z,1.40
2023-08-24T13:23:32.423Z,1.50
2023-08-24T13:26:35.586Z,2.10
2023-08-24T13:29:39.345Z,1.70
2023-08-24T13:32:42.421Z,1.70
2023-08-24T13:35:45.156Z,2.10
2023-08-24T13:38:48.678Z,2.10
2023-08-24T13:41:51.581Z,1.50
2023-08-24T13:44:54.370Z,2.00
2023-08-24T13:47:57.202Z,2.30
2023-08-24T13:51:00.227Z,4.20
2023-08-24T13:54:02.976Z,4.00
2023-08-24T13:57:05.967Z,1.40
2023-08-24T14:00:10.436Z,2.50
2023-08-24T14:05:16.367Z,2.60
2023-08-24T14:08:18.907Z,2.10
2023-08-24T14:11:20.741Z,3.30
2023-08-24T14:14:22.840Z,4.20
2023-08-24T14:17:24.710Z,2.50
2023-08-24T14:20:28.526Z,2.50
2023-08-24T14:23:31.361Z,3.50
2023-08-24T14:26:33.460Z,3.10
2023-08-24T14:29:35.752Z,1.90
2023-08-24T14:32:37.777Z,2.60
2023-08-24T14:35:41.368Z,4.30
2023-08-24T14:38:43.816Z,2.70
2023-08-24T14:41:46.864Z,2.40
2023-08-24T14:44:49.371Z,3.30
2023-08-24T14:47:51.544Z,1.30
2023-08-24T14:50:54.044Z,2.60
2023-08-24T14:53:56.136Z,2.60
2023-08-24T14:57:00.414Z,2.00
2023-08-24T15:00:05.682Z,3.60
2023-08-24T15:03:08.928Z,2.70
2023-08-24T15:06:12.117Z,2.70
2023-08-24T15:09:14.452Z,1.60
2023-08-24T15:12:16.749Z,5.30
2023-08-24T15:15:19.120Z,5.00
2023-08-24T15:18:22.310Z,2.80
2023-08-24T15:21:24.714Z,4.20
2023-08-24T15:24:26.764Z,2.40
2023-08-24T15:27:29.697Z,1.80
2023-08-24T15:30:32.223Z,6.30
2023-08-24T15:33:34.423Z,2.40
2023-08-24T15:36:36.619Z,4.00
2023-08-24T15:39:41.397Z,3.50
2023-08-24T15:42:45.016Z,3.20
2023-08-24T15:45:51.074Z,1.40
2023-08-24T15:48:56.545Z,2.50
2023-08-24T15:51:58.704Z,3.50
2023-08-24T15:55:00.774Z,5.70
2023-08-24T15:58:04.967Z,2.80
2023-08-24T16:01:09.321Z,2.60
2023-08-24T16:04:13.197Z,2.90
2023-08-24T16:07:16.485Z,3.70
2023-08-24T16:10:19.682Z,4.40
2023-08-24T16:13:22.198Z,9.70
2023-08-24T16:16:25.504Z,5.40
2023-08-24T16:19:27.848Z,8.40
2023-08-24T16:22:30.118Z,9.80
2023-08-24T16:25:32.888Z,9.50
2023-08-24T16:28:35.210Z,7.90
2023-08-24T16:31:37.268Z,10.20
2023-08-24T16:34:40.086Z,6.00
2023-08-24T16:37:42.117Z,4.10
2023-08-24T16:40:46.976Z,3.70
2023-08-24T16:43:48.902Z,4.00
2023-08-24T16:46:50.766Z,6.90
2023-08-24T16:49:53.015Z,4.70
2023-08-24T16:52:55.102Z,5.80
2023-08-24T16:55:57.215Z,6.60
2023-08-24T16:58:59.289Z,6.80
2023-08-24T17:02:01.486Z,7.30
2023-08-24T17:05:04.505Z,6.30
2023-08-24T17:08:09.148Z,5.70
2023-08-24T17:11:11.326Z,12.90
2023-08-24T17:14:13.783Z,14.30
2023-08-24T17:17:15.641Z,12.80
2023-08-24T17:20:18.010Z,16.30
2023-08-24T17:23:21.474Z,19.90
2023-08-24T17:26:23.890Z,26.70
2023-08-24T17:29:25.848Z,17.40
2023-08-24T17:32:28.266Z,19.10
2023-08-24T17:35:30.716Z,10.20
2023-08-24T17:38:33.550Z,10.40
2023-08-24T17:41:43.980Z,14.00
2023-08-24T17:44:46.020Z,18.00
2023-08-24T17:47:50.811Z,13.30
2023-08-24T17:50:54.569Z,16.30
2023-08-24T17:53:56.933Z,20.50
2023-08-24T17:57:01.520Z,10.70
2023-08-24T18:00:10.031Z,9.30
2023-08-24T18:04:57.952Z,6.50
2023-08-24T18:08:00.851Z,4.70
2023-08-24T18:11:05.673Z,7.40
2023-08-24T18:23:21.995Z,5.70
2023-08-24T18:26:25.070Z,6.90
2023-08-24T18:29:28.141Z,4.30
2023-08-24T18:32:31.152Z,6.30
2023-08-24T18:35:33.996Z,5.90
2023-08-24T18:38:36.924Z,5.50
2023-08-24T18:41:40.229Z,8.10
2023-08-24T18:44:43.547Z,7.20
2023-08-24T18:47:46.484Z,6.40
2023-08-24T18:50:49.874Z,9.20
2023-08-24T18:53:52.789Z,11.10
2023-08-24T18:56:55.646Z,11.70
2023-08-24T18:59:58.643Z,7.70
2023-08-24T19:03:02.354Z,9.90
2023-08-24T19:06:18.889Z,9.90
2023-08-24T19:09:26.645Z,7.40
2023-08-24T19:12:29.434Z,7.40
2023-08-24T19:15:32.795Z,7.20
2023-08-24T19:18:35.912Z,7.20
2023-08-24T19:21:38.705Z,6.40
2023-08-24T19:24:41.715Z,8.70
2023-08-24T19:27:44.368Z,5.70
2023-08-24T19:30:54.918Z,7.80
2023-08-24T19:33:57.688Z,8.50
2023-08-24T19:37:00.262Z,10.30
2023-08-24T19:40:05.341Z,8.50
2023-08-24T19:43:08.556Z,9.20
2023-08-24T19:46:11.750Z,6.20
2023-08-24T19:49:14.504Z,10.90
2023-08-24T19:52:17.237Z,11.80
2023-08-24T19:55:19.822Z,6.80
2023-08-24T19:58:23.310Z,7.20
2023-08-24T20:01:25.933Z,8.30
2023-08-24T20:04:28.850Z,13.00
2023-08-24T20:07:31.666Z,22.30
2023-08-24T20:10:34.267Z,45.00
2023-08-24T20:13:36.906Z,29.00
2023-08-24T20:16:39.649Z,11.20
2023-08-24T20:19:42.472Z,10.70
2023-08-24T20:26:27.214Z,9.20
2023-08-24T20:29:29.833Z,11.10
2023-08-24T20:32:33.742Z,19.90
2023-08-24T20:35:37.963Z,91.50
2023-08-24T20:38:40.886Z,39.80
2023-08-24T20:41:44.275Z,32.90
2023-08-24T20:44:47.324Z,21.50
2023-08-24T20:47:50.652Z,14.70
2023-08-24T20:51:01.177Z,14.00
2023-08-24T20:54:05.514Z,13.00
2023-08-24T20:57:08.278Z,12.90
2023-08-24T21:00:12.569Z,15.60
2023-08-24T21:03:15.328Z,32.90
2023-08-24T21:06:18.006Z,23.10
2023-08-24T21:09:20.711Z,17.50
2023-08-24T21:12:23.367Z,13.50
2023-08-24T21:15:26.230Z,14.50
2023-08-24T21:18:29.141Z,15.90
2023-08-24T21:21:31.955Z,9.10
2023-08-24T21:28:07.087Z,8.20
2023-08-24T21:31:10.204Z,6.80
2023-08-24T21:34:14.735Z,7.20
2023-08-24T21:37:17.863Z,7.40
2023-08-24T21:40:23.785Z,12.40
2023-08-24T21:43:26.774Z,23.50
2023-08-24T21:46:29.885Z,19.00
2023-08-24T21:49:32.875Z,13.60
2023-08-24T22:05:16.096Z,14.70
2023-08-24T22:08:18.146Z,14.90
2023-08-24T22:11:20.284Z,14.60
2023-08-24T22:14:22.703Z,8.60
2023-08-24T22:17:24.727Z,8.40
2023-08-24T22:20:28.141Z,9.40
2023-08-24T22:23:30.008Z,10.00
2023-08-24T22:26:32.461Z,6.90
2023-08-24T22:29:34.496Z,5.90
2023-08-24T22:32:37.689Z,10.50
2023-08-24T22:35:40.410Z,10.30
2023-08-24T22:38:42.496Z,5.10
2023-08-24T22:41:44.874Z,7.80
2023-08-24T22:44:48.054Z,6.70
2023-08-24T22:47:50.525Z,6.50
2023-08-24T22:50:52.932Z,7.40
2023-08-24T22:53:55.644Z,7.50
2023-08-24T22:56:58.531Z,8.20
2023-08-24T23:00:04.375Z,8.90
2023-08-24T23:03:06.757Z,7.00
2023-08-24T23:06:13.336Z,7.90
2023-08-24T23:09:16.305Z,6.50
2023-08-24T23:12:22.038Z,14.50
2023-08-24T23:15:25.453Z,5.10
2023-08-24T23:18:27.383Z,6.20
2023-08-24T23:21:29.755Z,5.20
2023-08-24T23:24:44.402Z,4.50
2023-08-24T23:27:52.951Z,4.70
2023-08-24T23:30:55.337Z,7.40
2023-08-24T23:33:57.214Z,7.80
2023-08-24T23:37:02.538Z,6.80
2023-08-24T23:40:06.482Z,6.90
2023-08-24T23:43:09.646Z,5.20
2023-08-24T23:46:11.703Z,7.50
2023-08-24T23:49:13.895Z,6.40
2023-08-24T23:52:16.176Z,13.40
2023-08-24T23:55:18.117Z,6.20
2023-08-24T23:58:20.199Z,8.30
